Arthur, IA (51431)

10:29 PM CST on February 10, 2016 (GMT -0600)
Oxendales Arthur, IA | | Change Station
CLOSE
Current Station
Personal Weather Station
Location: Arthur, IA
Elevation: 1496 ft
Nearby Weather Stations

Elev 1496 ft 42.28 °N, 95.36 °W | Updated 14 seconds ago

Overcast
Overcast
11.8 °F
Feels Like 3 °F
N
5.1
Wind Variable Wind from East
Gusts 5.6 mph

Today
High -- | Low -- °F
--% Chance of Precip.
Yesterday
High -- | Low -- °F
Precip. -- in
Pressure 30.17 in
Visibility 10.0 miles
Clouds Few 4200 ft
Overcast 5000 ft
Windchill 3 °F
Dew Point 10 °F
Humidity 93%
Rainfall in
Snow Depth Not available.
7:25 AM 5:46 PM
Waxing Crescent, 9% visible
METAR KSLB 110415Z AUTO 06011KT 10SM FEW042 OVC050 M11/M13 A3017 RMK AO2
Pressure 30.17 in
Visibility 10.0 miles
Clouds Few 4200 ft
Overcast 5000 ft
Windchill 3 °F
Dew Point 10 °F
Humidity 93%
Rainfall in
Snow Depth Not available.
7:25 AM 5:46 PM
Waxing Crescent, 9% visible
METAR KSLB 110415Z AUTO 06011KT 10SM FEW042 OVC050 M11/M13 A3017 RMK AO2

10-Day Weather Forecast

Almanac

Astronomy

Feb. 10, 2016 Rise Set
Actual Time
Civil Twilight
Nautical Twilight
Astronomical Twilight
Moon
Length of Visible Light
Length of Day
Tomorrow will be .
, % of the Moon is Illuminated

Today's Extremes

State Highs State Lows

Community

WunderPhotos

Upload Photos

1,892,012 photos uploaded!

WunderBlog® & News

Nearby

Air Quality

  Air Quality AQ Index Pollutant
Not available.

Snow Depth

Station Depth Elevation

Earthquake Activity

City Distance Mag. Time & Date
Minimum magnitude displayed is 2.5.

Coastal Water Temperatures

Place Temperature

Stations

Nearby Weather Stations

Station Location Temp. Windchill Dew Point Humidity Wind Precip. Elev Updated Type
                   

Watches & Warnings

There are currently no watches in effect.